sensor_id;sensor_type;location;lat;lon;timestamp;pressure;altitude;pressure_sealevel;temperature;humidity
59367;BME280;45163;47.690;11.770;2023-12-14T00:01:51;92194.13;;;1.91;100.00
59367;BME280;45163;47.690;11.770;2023-12-14T00:04:17;92190.22;;;1.95;100.00
59367;BME280;45163;47.690;11.770;2023-12-14T00:06:44;92198.69;;;1.94;100.00
59367;BME280;45163;47.690;11.770;2023-12-14T00:09:09;92193.56;;;2.03;100.00
59367;BME280;45163;47.690;11.770;2023-12-14T00:11:39;92204.38;;;1.99;100.00
59367;BME280;45163;47.690;11.770;2023-12-14T00:14:05;92206.59;;;2.05;100.00
59367;BME280;45163;47.690;11.770;2023-12-14T00:16:31;92205.66;;;2.18;100.00
59367;BME280;45163;47.690;11.770;2023-12-14T00:18:58;92215.69;;;2.14;100.00
59367;BME280;45163;47.690;11.770;2023-12-14T00:21:24;92220.84;;;2.05;100.00
59367;BME280;45163;47.690;11.770;2023-12-14T00:23:50;92211.06;;;2.15;100.00
59367;BME280;45163;47.690;11.770;2023-12-14T00:26:16;92217.78;;;2.03;100.00
59367;BME280;45163;47.690;11.770;2023-12-14T00:28:43;92217.63;;;2.14;100.00
59367;BME280;45163;47.690;11.770;2023-12-14T00:31:09;92235.59;;;2.20;100.00
59367;BME280;45163;47.690;11.770;2023-12-14T00:33:35;92235.00;;;2.09;100.00
59367;BME280;45163;47.690;11.770;2023-12-14T00:36:01;92237.56;;;2.16;100.00
59367;BME280;45163;47.690;11.770;2023-12-14T00:38:27;92234.41;;;1.98;100.00
59367;BME280;45163;47.690;11.770;2023-12-14T00:40:53;92239.69;;;2.05;100.00
59367;BME280;45163;47.690;11.770;2023-12-14T00:43:19;92253.34;;;2.18;100.00
59367;BME280;45163;47.690;11.770;2023-12-14T00:45:45;92232.38;;;2.06;100.00
59367;BME280;45163;47.690;11.770;2023-12-14T00:48:11;92252.06;;;1.99;100.00
59367;BME280;45163;47.690;11.770;2023-12-14T00:50:37;92258.88;;;2.07;100.00
59367;BME280;45163;47.690;11.770;2023-12-14T00:53:03;92268.50;;;2.05;100.00
59367;BME280;45163;47.690;11.770;2023-12-14T00:55:29;92268.38;;;1.88;100.00
59367;BME280;45163;47.690;11.770;2023-12-14T00:57:55;92264.91;;;2.15;100.00
59367;BME280;45163;47.690;11.770;2023-12-14T01:00:21;92275.72;;;2.11;100.00
59367;BME280;45163;47.690;11.770;2023-12-14T01:02:47;92267.94;;;2.17;100.00
59367;BME280;45163;47.690;11.770;2023-12-14T01:05:13;92273.06;;;2.08;100.00
59367;BME280;45163;47.690;11.770;2023-12-14T01:07:39;92283.50;;;2.06;100.00
59367;BME280;45163;47.690;11.770;2023-12-14T01:10:05;92291.75;;;1.91;100.00
59367;BME280;45163;47.690;11.770;2023-12-14T01:12:31;92285.78;;;2.07;100.00
59367;BME280;45163;47.690;11.770;2023-12-14T01:14:57;92298.78;;;2.12;100.00
59367;BME280;45163;47.690;11.770;2023-12-14T01:17:23;92302.56;;;2.18;100.00
59367;BME280;45163;47.690;11.770;2023-12-14T01:19:50;92300.19;;;1.93;100.00
59367;BME280;45163;47.690;11.770;2023-12-14T01:22:16;92296.84;;;2.13;100.00
59367;BME280;45163;47.690;11.770;2023-12-14T01:24:42;92305.25;;;1.88;100.00
59367;BME280;45163;47.690;11.770;2023-12-14T01:27:08;92311.34;;;2.22;100.00
59367;BME280;45163;47.690;11.770;2023-12-14T01:29:35;92306.28;;;1.97;100.00
59367;BME280;45163;47.690;11.770;2023-12-14T01:32:01;92318.66;;;2.22;100.00
59367;BME280;45163;47.690;11.770;2023-12-14T01:34:27;92321.59;;;2.31;100.00
59367;BME280;45163;47.690;11.770;2023-12-14T01:36:53;92318.50;;;2.33;100.00
59367;BME280;45163;47.690;11.770;2023-12-14T01:39:19;92324.25;;;2.35;100.00
59367;BME280;45163;47.690;11.770;2023-12-14T01:41:45;92325.50;;;2.27;100.00
59367;BME280;45163;47.690;11.770;2023-12-14T01:44:11;92337.00;;;2.31;100.00
59367;BME280;45163;47.690;11.770;2023-12-14T01:46:37;92337.75;;;2.31;100.00
59367;BME280;45163;47.690;11.770;2023-12-14T01:49:03;92335.91;;;2.24;100.00
59367;BME280;45163;47.690;11.770;2023-12-14T01:51:29;92332.88;;;2.22;100.00
59367;BME280;45163;47.690;11.770;2023-12-14T01:53:55;92343.94;;;2.28;100.00
59367;BME280;45163;47.690;11.770;2023-12-14T01:56:21;92343.00;;;2.11;100.00
59367;BME280;45163;47.690;11.770;2023-12-14T01:58:47;92353.16;;;2.31;100.00
59367;BME280;45163;47.690;11.770;2023-12-14T02:01:44;92349.03;;;2.22;100.00
59367;BME280;45163;47.690;11.770;2023-12-14T02:04:14;92358.66;;;2.20;100.00
59367;BME280;45163;47.690;11.770;2023-12-14T02:06:41;92366.19;;;2.32;100.00
59367;BME280;45163;47.690;11.770;2023-12-14T02:09:07;92365.53;;;2.24;100.00
59367;BME280;45163;47.690;11.770;2023-12-14T02:11:33;92373.94;;;2.30;100.00
59367;BME280;45163;47.690;11.770;2023-12-14T02:14:06;92374.31;;;2.29;100.00
59367;BME280;45163;47.690;11.770;2023-12-14T02:16:32;92374.66;;;2.34;100.00
59367;BME280;45163;47.690;11.770;2023-12-14T02:18:58;92376.44;;;2.44;100.00
59367;BME280;45163;47.690;11.770;2023-12-14T02:21:24;92380.69;;;2.42;100.00
59367;BME280;45163;47.690;11.770;2023-12-14T02:23:50;92380.91;;;2.24;100.00
59367;BME280;45163;47.690;11.770;2023-12-14T02:26:16;92380.03;;;2.34;100.00
59367;BME280;45163;47.690;11.770;2023-12-14T02:28:43;92388.72;;;2.45;100.00
59367;BME280;45163;47.690;11.770;2023-12-14T02:31:09;92381.44;;;2.42;100.00
59367;BME280;45163;47.690;11.770;2023-12-14T02:33:35;92390.69;;;2.41;100.00
59367;BME280;45163;47.690;11.770;2023-12-14T02:36:01;92385.41;;;2.34;100.00
59367;BME280;45163;47.690;11.770;2023-12-14T02:38:29;92383.50;;;2.35;100.00
59367;BME280;45163;47.690;11.770;2023-12-14T02:40:55;92383.88;;;2.33;100.00
59367;BME280;45163;47.690;11.770;2023-12-14T02:43:21;92392.13;;;2.49;100.00
59367;BME280;45163;47.690;11.770;2023-12-14T02:45:49;92389.19;;;2.40;100.00
59367;BME280;45163;47.690;11.770;2023-12-14T02:48:15;92387.91;;;2.48;100.00
59367;BME280;45163;47.690;11.770;2023-12-14T02:53:07;92393.09;;;2.36;100.00
59367;BME280;45163;47.690;11.770;2023-12-14T02:55:33;92392.88;;;2.23;100.00
59367;BME280;45163;47.690;11.770;2023-12-14T02:57:59;92399.41;;;2.22;100.00
59367;BME280;45163;47.690;11.770;2023-12-14T03:00:25;92400.50;;;2.28;100.00
59367;BME280;45163;47.690;11.770;2023-12-14T03:02:52;92416.59;;;2.32;100.00
59367;BME280;45163;47.690;11.770;2023-12-14T03:05:18;92405.69;;;2.12;100.00
59367;BME280;45163;47.690;11.770;2023-12-14T03:07:50;92409.97;;;2.40;100.00
59367;BME280;45163;47.690;11.770;2023-12-14T03:10:16;92416.81;;;2.44;100.00
59367;BME280;45163;47.690;11.770;2023-12-14T03:12:42;92414.13;;;2.44;100.00
59367;BME280;45163;47.690;11.770;2023-12-14T03:15:08;92423.16;;;2.31;100.00
59367;BME280;45163;47.690;11.770;2023-12-14T03:17:34;92420.09;;;2.29;100.00
59367;BME280;45163;47.690;11.770;2023-12-14T03:20:16;92432.94;;;2.17;100.00
59367;BME280;45163;47.690;11.770;2023-12-14T03:22:42;92432.06;;;2.24;100.00
59367;BME280;45163;47.690;11.770;2023-12-14T03:25:09;92436.88;;;2.09;100.00
59367;BME280;45163;47.690;11.770;2023-12-14T03:27:35;92438.34;;;2.14;100.00
59367;BME280;45163;47.690;11.770;2023-12-14T03:30:01;92440.13;;;2.28;100.00
59367;BME280;45163;47.690;11.770;2023-12-14T03:32:29;92440.59;;;2.19;100.00
59367;BME280;45163;47.690;11.770;2023-12-14T03:34:55;92439.88;;;2.15;100.00
59367;BME280;45163;47.690;11.770;2023-12-14T03:37:21;92448.06;;;2.04;100.00
59367;BME280;45163;47.690;11.770;2023-12-14T03:39:47;92449.75;;;2.25;100.00
59367;BME280;45163;47.690;11.770;2023-12-14T03:42:13;92455.88;;;2.25;100.00
59367;BME280;45163;47.690;11.770;2023-12-14T03:44:39;92462.28;;;2.05;100.00
59367;BME280;45163;47.690;11.770;2023-12-14T03:47:06;92464.03;;;2.22;100.00
59367;BME280;45163;47.690;11.770;2023-12-14T03:49:37;92466.75;;;2.18;100.00
59367;BME280;45163;47.690;11.770;2023-12-14T03:52:04;92465.13;;;2.24;100.00
59367;BME280;45163;47.690;11.770;2023-12-14T03:54:30;92461.75;;;2.17;100.00
59367;BME280;45163;47.690;11.770;2023-12-14T03:56:56;92468.25;;;2.23;100.00
59367;BME280;45163;47.690;11.770;2023-12-14T03:59:22;92478.97;;;2.27;100.00
59367;BME280;45163;47.690;11.770;2023-12-14T04:01:48;92472.78;;;2.30;100.00
59367;BME280;45163;47.690;11.770;2023-12-14T04:04:14;92485.19;;;2.20;100.00
59367;BME280;45163;47.690;11.770;2023-12-14T04:06:40;92496.00;;;2.16;100.00
59367;BME280;45163;47.690;11.770;2023-12-14T04:09:06;92496.03;;;2.13;100.00
59367;BME280;45163;47.690;11.770;2023-12-14T04:11:32;92498.81;;;2.06;100.00
59367;BME280;45163;47.690;11.770;2023-12-14T04:13:58;92505.53;;;2.24;100.00
59367;BME280;45163;47.690;11.770;2023-12-14T04:16:24;92511.28;;;2.27;100.00
59367;BME280;45163;47.690;11.770;2023-12-14T04:18:50;92523.09;;;2.36;100.00
59367;BME280;45163;47.690;11.770;2023-12-14T04:21:16;92521.84;;;2.44;100.00
59367;BME280;45163;47.690;11.770;2023-12-14T04:23:42;92533.56;;;2.31;100.00
59367;BME280;45163;47.690;11.770;2023-12-14T04:26:08;92529.38;;;2.26;100.00
59367;BME280;45163;47.690;11.770;2023-12-14T04:28:35;92535.53;;;2.27;100.00
59367;BME280;45163;47.690;11.770;2023-12-14T04:31:01;92540.66;;;2.14;100.00
59367;BME280;45163;47.690;11.770;2023-12-14T04:33:27;92549.81;;;2.20;100.00
59367;BME280;45163;47.690;11.770;2023-12-14T04:35:53;92549.69;;;2.34;100.00
59367;BME280;45163;47.690;11.770;2023-12-14T04:38:19;92549.78;;;2.23;100.00
59367;BME280;45163;47.690;11.770;2023-12-14T04:40:45;92549.53;;;2.11;100.00
59367;BME280;45163;47.690;11.770;2023-12-14T04:43:11;92559.59;;;1.99;100.00
59367;BME280;45163;47.690;11.770;2023-12-14T04:45:39;92560.31;;;2.07;100.00
59367;BME280;45163;47.690;11.770;2023-12-14T04:48:05;92568.41;;;2.04;100.00
59367;BME280;45163;47.690;11.770;2023-12-14T04:50:31;92579.19;;;2.04;100.00
59367;BME280;45163;47.690;11.770;2023-12-14T04:52:57;92577.19;;;2.11;100.00
59367;BME280;45163;47.690;11.770;2023-12-14T04:55:23;92583.31;;;2.15;100.00
59367;BME280;45163;47.690;11.770;2023-12-14T04:57:49;92593.75;;;2.10;100.00
59367;BME280;45163;47.690;11.770;2023-12-14T05:00:15;92589.22;;;1.99;100.00
59367;BME280;45163;47.690;11.770;2023-12-14T05:02:41;92596.56;;;1.92;100.00
59367;BME280;45163;47.690;11.770;2023-12-14T05:05:07;92599.66;;;1.90;100.00
59367;BME280;45163;47.690;11.770;2023-12-14T05:07:33;92599.19;;;2.03;100.00
59367;BME280;45163;47.690;11.770;2023-12-14T05:09:59;92598.06;;;1.96;100.00
59367;BME280;45163;47.690;11.770;2023-12-14T05:12:25;92601.19;;;1.91;100.00
59367;BME280;45163;47.690;11.770;2023-12-14T05:14:52;92618.09;;;1.92;100.00
59367;BME280;45163;47.690;11.770;2023-12-14T05:17:18;92612.78;;;1.85;100.00
59367;BME280;45163;47.690;11.770;2023-12-14T05:19:44;92614.75;;;1.81;100.00
59367;BME280;45163;47.690;11.770;2023-12-14T05:22:11;92619.06;;;1.67;100.00
59367;BME280;45163;47.690;11.770;2023-12-14T05:24:38;92622.81;;;1.81;100.00
59367;BME280;45163;47.690;11.770;2023-12-14T05:27:04;92633.06;;;1.96;100.00
59367;BME280;45163;47.690;11.770;2023-12-14T05:29:30;92637.47;;;1.76;100.00
59367;BME280;45163;47.690;11.770;2023-12-14T05:31:57;92642.72;;;1.90;100.00
59367;BME280;45163;47.690;11.770;2023-12-14T05:34:23;92638.88;;;1.91;100.00
59367;BME280;45163;47.690;11.770;2023-12-14T05:36:49;92647.75;;;1.88;100.00
59367;BME280;45163;47.690;11.770;2023-12-14T05:39:15;92653.19;;;1.81;100.00
59367;BME280;45163;47.690;11.770;2023-12-14T05:41:41;92661.56;;;1.90;100.00
59367;BME280;45163;47.690;11.770;2023-12-14T05:44:07;92660.94;;;1.72;100.00
59367;BME280;45163;47.690;11.770;2023-12-14T05:46:33;92676.66;;;1.73;100.00
59367;BME280;45163;47.690;11.770;2023-12-14T05:48:59;92674.28;;;1.83;100.00
59367;BME280;45163;47.690;11.770;2023-12-14T05:51:29;92679.38;;;1.70;100.00
59367;BME280;45163;47.690;11.770;2023-12-14T05:53:56;92683.19;;;1.76;100.00
59367;BME280;45163;47.690;11.770;2023-12-14T05:56:22;92693.28;;;1.58;100.00
59367;BME280;45163;47.690;11.770;2023-12-14T05:58:49;92698.16;;;1.81;100.00
59367;BME280;45163;47.690;11.770;2023-12-14T06:01:17;92695.06;;;1.79;100.00
59367;BME280;45163;47.690;11.770;2023-12-14T06:03:44;92699.34;;;1.72;100.00
59367;BME280;45163;47.690;11.770;2023-12-14T06:06:10;92700.88;;;1.70;100.00
59367;BME280;45163;47.690;11.770;2023-12-14T06:08:37;92712.41;;;1.74;100.00
59367;BME280;45163;47.690;11.770;2023-12-14T06:11:03;92715.09;;;1.74;100.00
59367;BME280;45163;47.690;11.770;2023-12-14T06:13:32;92712.81;;;1.69;100.00
59367;BME280;45163;47.690;11.770;2023-12-14T06:15:58;92720.91;;;1.62;100.00
59367;BME280;45163;47.690;11.770;2023-12-14T06:18:24;92722.09;;;1.54;100.00
59367;BME280;45163;47.690;11.770;2023-12-14T06:20:50;92721.00;;;1.47;100.00
59367;BME280;45163;47.690;11.770;2023-12-14T06:23:16;92726.03;;;1.35;100.00
59367;BME280;45163;47.690;11.770;2023-12-14T06:25:42;92729.09;;;1.40;100.00
59367;BME280;45163;47.690;11.770;2023-12-14T06:28:08;92728.69;;;1.42;100.00
59367;BME280;45163;47.690;11.770;2023-12-14T06:30:34;92738.69;;;1.38;100.00
59367;BME280;45163;47.690;11.770;2023-12-14T06:33:00;92736.41;;;1.33;100.00
59367;BME280;45163;47.690;11.770;2023-12-14T06:35:26;92740.59;;;1.41;100.00
59367;BME280;45163;47.690;11.770;2023-12-14T06:37:52;92749.81;;;1.40;100.00
59367;BME280;45163;47.690;11.770;2023-12-14T06:40:18;92752.09;;;1.45;100.00
59367;BME280;45163;47.690;11.770;2023-12-14T06:42:45;92753.69;;;1.39;100.00
59367;BME280;45163;47.690;11.770;2023-12-14T06:45:11;92750.59;;;1.37;100.00
59367;BME280;45163;47.690;11.770;2023-12-14T06:47:37;92757.91;;;1.40;100.00
59367;BME280;45163;47.690;11.770;2023-12-14T06:50:03;92764.81;;;1.34;100.00
59367;BME280;45163;47.690;11.770;2023-12-14T06:52:29;92772.88;;;1.34;100.00
59367;BME280;45163;47.690;11.770;2023-12-14T06:54:55;92775.56;;;1.34;100.00
59367;BME280;45163;47.690;11.770;2023-12-14T06:57:21;92778.25;;;1.34;100.00
59367;BME280;45163;47.690;11.770;2023-12-14T06:59:47;92785.13;;;1.45;100.00
59367;BME280;45163;47.690;11.770;2023-12-14T07:02:13;92785.53;;;1.44;100.00
59367;BME280;45163;47.690;11.770;2023-12-14T07:04:38;92789.41;;;1.43;100.00
59367;BME280;45163;47.690;11.770;2023-12-14T07:07:04;92804.31;;;1.55;100.00
59367;BME280;45163;47.690;11.770;2023-12-14T07:09:30;92807.81;;;1.41;100.00
59367;BME280;45163;47.690;11.770;2023-12-14T07:11:56;92805.47;;;1.57;100.00
59367;BME280;45163;47.690;11.770;2023-12-14T07:14:22;92818.94;;;1.50;100.00
59367;BME280;45163;47.690;11.770;2023-12-14T07:16:49;92815.06;;;1.55;100.00
59367;BME280;45163;47.690;11.770;2023-12-14T07:19:14;92814.34;;;1.51;100.00
59367;BME280;45163;47.690;11.770;2023-12-14T07:21:40;92827.03;;;1.39;100.00
59367;BME280;45163;47.690;11.770;2023-12-14T07:24:06;92830.47;;;1.47;100.00
59367;BME280;45163;47.690;11.770;2023-12-14T07:26:32;92831.59;;;1.53;100.00
59367;BME280;45163;47.690;11.770;2023-12-14T07:28:58;92833.53;;;1.60;100.00
59367;BME280;45163;47.690;11.770;2023-12-14T07:31:24;92845.41;;;1.69;100.00
59367;BME280;45163;47.690;11.770;2023-12-14T07:33:51;92845.06;;;1.49;100.00
59367;BME280;45163;47.690;11.770;2023-12-14T07:36:16;92853.88;;;1.61;100.00
59367;BME280;45163;47.690;11.770;2023-12-14T07:38:42;92853.13;;;1.57;100.00
59367;BME280;45163;47.690;11.770;2023-12-14T07:41:08;92856.56;;;1.68;100.00
59367;BME280;45163;47.690;11.770;2023-12-14T07:43:34;92860.38;;;1.67;100.00
59367;BME280;45163;47.690;11.770;2023-12-14T07:46:00;92863.47;;;1.69;100.00
59367;BME280;45163;47.690;11.770;2023-12-14T07:48:26;92868.78;;;1.83;100.00
59367;BME280;45163;47.690;11.770;2023-12-14T07:50:54;92869.56;;;1.84;100.00
59367;BME280;45163;47.690;11.770;2023-12-14T07:53:20;92876.84;;;1.90;100.00
59367;BME280;45163;47.690;11.770;2023-12-14T07:55:46;92881.03;;;2.06;100.00
59367;BME280;45163;47.690;11.770;2023-12-14T07:58:12;92877.59;;;1.94;100.00
59367;BME280;45163;47.690;11.770;2023-12-14T08:00:38;92886.34;;;2.20;100.00
59367;BME280;45163;47.690;11.770;2023-12-14T08:03:04;92889.69;;;2.42;100.00
59367;BME280;45163;47.690;11.770;2023-12-14T08:05:31;92889.31;;;2.40;100.00
59367;BME280;45163;47.690;11.770;2023-12-14T08:08:00;92895.91;;;2.32;100.00
59367;BME280;45163;47.690;11.770;2023-12-14T08:10:26;92890.75;;;2.59;100.00
59367;BME280;45163;47.690;11.770;2023-12-14T08:12:52;92894.16;;;2.73;100.00
59367;BME280;45163;47.690;11.770;2023-12-14T08:15:18;92893.88;;;2.54;100.00
59367;BME280;45163;47.690;11.770;2023-12-14T08:17:50;92903.00;;;2.74;100.00
59367;BME280;45163;47.690;11.770;2023-12-14T08:20:16;92906.09;;;2.69;100.00
59367;BME280;45163;47.690;11.770;2023-12-14T08:22:42;92913.78;;;2.74;100.00
59367;BME280;45163;47.690;11.770;2023-12-14T08:25:16;92912.31;;;2.59;100.00
59367;BME280;45163;47.690;11.770;2023-12-14T08:27:57;92919.59;;;2.62;100.00
59367;BME280;45163;47.690;11.770;2023-12-14T08:30:23;92929.91;;;2.81;100.00
59367;BME280;45163;47.690;11.770;2023-12-14T08:32:49;92929.50;;;2.83;100.00
59367;BME280;45163;47.690;11.770;2023-12-14T08:35:15;92936.53;;;2.62;100.00
59367;BME280;45163;47.690;11.770;2023-12-14T08:37:41;92931.88;;;2.70;100.00
59367;BME280;45163;47.690;11.770;2023-12-14T08:40:09;92933.09;;;2.58;100.00
59367;BME280;45163;47.690;11.770;2023-12-14T08:42:35;92936.13;;;2.67;100.00
59367;BME280;45163;47.690;11.770;2023-12-14T08:45:02;92938.34;;;2.83;100.00
59367;BME280;45163;47.690;11.770;2023-12-14T08:47:28;92943.72;;;2.87;100.00
59367;BME280;45163;47.690;11.770;2023-12-14T08:49:53;92949.84;;;2.94;100.00
59367;BME280;45163;47.690;11.770;2023-12-14T08:52:19;92942.13;;;2.96;100.00
59367;BME280;45163;47.690;11.770;2023-12-14T08:54:45;92947.84;;;3.06;100.00
59367;BME280;45163;47.690;11.770;2023-12-14T08:57:12;92955.84;;;3.16;100.00
59367;BME280;45163;47.690;11.770;2023-12-14T08:59:38;92949.34;;;3.14;100.00
59367;BME280;45163;47.690;11.770;2023-12-14T09:02:04;92957.78;;;3.16;100.00
59367;BME280;45163;47.690;11.770;2023-12-14T09:04:30;92958.91;;;3.22;100.00
59367;BME280;45163;47.690;11.770;2023-12-14T09:06:56;92959.25;;;3.28;100.00
59367;BME280;45163;47.690;11.770;2023-12-14T09:09:22;92971.84;;;3.45;100.00
59367;BME280;45163;47.690;11.770;2023-12-14T09:11:48;92968.91;;;3.73;100.00
59367;BME280;45163;47.690;11.770;2023-12-14T09:14:14;92973.03;;;3.89;100.00
59367;BME280;45163;47.690;11.770;2023-12-14T09:16:41;92979.38;;;4.09;100.00
59367;BME280;45163;47.690;11.770;2023-12-14T09:19:08;92978.25;;;4.07;100.00
59367;BME280;45163;47.690;11.770;2023-12-14T09:21:34;92983.28;;;4.39;100.00
59367;BME280;45163;47.690;11.770;2023-12-14T09:24:00;92984.38;;;4.48;100.00
59367;BME280;45163;47.690;11.770;2023-12-14T09:26:27;92988.41;;;4.30;100.00
59367;BME280;45163;47.690;11.770;2023-12-14T09:28:53;92983.69;;;4.41;100.00
59367;BME280;45163;47.690;11.770;2023-12-14T09:31:19;92988.81;;;4.32;100.00
59367;BME280;45163;47.690;11.770;2023-12-14T09:33:45;92990.75;;;3.90;100.00
59367;BME280;45163;47.690;11.770;2023-12-14T09:36:11;92995.50;;;3.75;100.00
59367;BME280;45163;47.690;11.770;2023-12-14T09:38:37;92997.59;;;3.53;100.00
59367;BME280;45163;47.690;11.770;2023-12-14T09:41:03;93002.84;;;3.71;100.00
59367;BME280;45163;47.690;11.770;2023-12-14T09:43:30;93006.03;;;3.59;100.00
59367;BME280;45163;47.690;11.770;2023-12-14T09:45:56;93016.72;;;3.73;100.00
59367;BME280;45163;47.690;11.770;2023-12-14T09:48:23;93010.34;;;3.49;100.00
59367;BME280;45163;47.690;11.770;2023-12-14T09:50:50;93009.59;;;3.48;100.00
59367;BME280;45163;47.690;11.770;2023-12-14T09:53:16;93019.16;;;3.60;100.00
59367;BME280;45163;47.690;11.770;2023-12-14T09:55:42;93019.78;;;3.75;100.00
59367;BME280;45163;47.690;11.770;2023-12-14T09:58:09;93020.41;;;3.93;100.00
59367;BME280;45163;47.690;11.770;2023-12-14T10:00:37;93025.47;;;4.29;100.00
59367;BME280;45163;47.690;11.770;2023-12-14T10:03:25;93024.41;;;4.23;100.00
59367;BME280;45163;47.690;11.770;2023-12-14T10:05:52;93027.47;;;4.21;100.00
59367;BME280;45163;47.690;11.770;2023-12-14T10:11:42;93030.06;;;3.91;100.00
59367;BME280;45163;47.690;11.770;2023-12-14T10:14:21;93032.91;;;3.77;100.00
59367;BME280;45163;47.690;11.770;2023-12-14T10:16:48;93029.84;;;3.15;100.00
59367;BME280;45163;47.690;11.770;2023-12-14T10:19:17;93041.78;;;3.14;100.00
59367;BME280;45163;47.690;11.770;2023-12-14T10:21:43;93046.81;;;3.09;100.00
59367;BME280;45163;47.690;11.770;2023-12-14T10:24:09;93045.63;;;3.13;100.00
59367;BME280;45163;47.690;11.770;2023-12-14T10:26:35;93049.13;;;3.07;100.00
59367;BME280;45163;47.690;11.770;2023-12-14T10:29:01;93053.00;;;3.06;100.00
59367;BME280;45163;47.690;11.770;2023-12-14T10:31:31;93054.09;;;3.15;100.00
59367;BME280;45163;47.690;11.770;2023-12-14T10:33:57;93047.09;;;3.25;100.00
59367;BME280;45163;47.690;11.770;2023-12-14T10:36:25;93047.38;;;3.48;100.00
59367;BME280;45163;47.690;11.770;2023-12-14T10:38:52;93053.84;;;3.55;100.00
59367;BME280;45163;47.690;11.770;2023-12-14T10:41:20;93059.59;;;3.64;100.00
59367;BME280;45163;47.690;11.770;2023-12-14T10:43:47;93063.84;;;3.65;100.00
59367;BME280;45163;47.690;11.770;2023-12-14T10:46:14;93065.28;;;3.77;100.00
59367;BME280;45163;47.690;11.770;2023-12-14T10:48:40;93068.34;;;3.79;100.00
59367;BME280;45163;47.690;11.770;2023-12-14T10:51:11;93064.16;;;3.70;100.00
59367;BME280;45163;47.690;11.770;2023-12-14T10:53:38;93064.50;;;3.76;100.00
59367;BME280;45163;47.690;11.770;2023-12-14T10:56:07;93072.53;;;3.87;100.00
59367;BME280;45163;47.690;11.770;2023-12-14T11:01:15;93081.44;;;3.80;100.00
59367;BME280;45163;47.690;11.770;2023-12-14T11:03:43;93083.34;;;3.87;100.00
59367;BME280;45163;47.690;11.770;2023-12-14T11:06:40;93091.00;;;3.92;100.00
59367;BME280;45163;47.690;11.770;2023-12-14T11:09:09;93086.75;;;3.94;100.00
59367;BME280;45163;47.690;11.770;2023-12-14T11:12:04;93085.88;;;4.08;100.00
59367;BME280;45163;47.690;11.770;2023-12-14T11:14:29;93096.22;;;4.13;100.00
59367;BME280;45163;47.690;11.770;2023-12-14T11:16:56;93086.63;;;4.54;100.00
59367;BME280;45163;47.690;11.770;2023-12-14T11:19:28;93088.38;;;4.71;100.00
59367;BME280;45163;47.690;11.770;2023-12-14T11:24:24;93098.31;;;4.43;100.00
59367;BME280;45163;47.690;11.770;2023-12-14T11:26:51;93092.06;;;4.50;100.00
59367;BME280;45163;47.690;11.770;2023-12-14T11:29:18;93104.06;;;4.45;100.00
59367;BME280;45163;47.690;11.770;2023-12-14T11:31:48;93104.22;;;4.72;100.00
59367;BME280;45163;47.690;11.770;2023-12-14T11:34:17;93110.16;;;4.57;100.00
59367;BME280;45163;47.690;11.770;2023-12-14T11:36:43;93106.38;;;4.47;100.00
59367;BME280;45163;47.690;11.770;2023-12-14T11:39:11;93111.94;;;4.29;100.00
59367;BME280;45163;47.690;11.770;2023-12-14T11:41:38;93111.97;;;4.67;100.00
59367;BME280;45163;47.690;11.770;2023-12-14T11:44:04;93114.88;;;4.45;100.00
59367;BME280;45163;47.690;11.770;2023-12-14T11:46:31;93121.00;;;4.53;100.00
59367;BME280;45163;47.690;11.770;2023-12-14T11:48:58;93112.66;;;4.37;100.00
59367;BME280;45163;47.690;11.770;2023-12-14T11:51:24;93119.53;;;4.41;100.00
59367;BME280;45163;47.690;11.770;2023-12-14T11:53:55;93124.25;;;4.34;100.00
59367;BME280;45163;47.690;11.770;2023-12-14T11:56:21;93128.50;;;4.35;100.00
59367;BME280;45163;47.690;11.770;2023-12-14T11:58:49;93126.94;;;4.34;100.00
59367;BME280;45163;47.690;11.770;2023-12-14T12:01:17;93121.75;;;4.54;100.00
59367;BME280;45163;47.690;11.770;2023-12-14T12:03:44;93121.16;;;4.35;100.00
59367;BME280;45163;47.690;11.770;2023-12-14T12:06:24;93124.47;;;4.50;100.00
59367;BME280;45163;47.690;11.770;2023-12-14T12:08:51;93125.59;;;4.11;100.00
59367;BME280;45163;47.690;11.770;2023-12-14T12:11:19;93130.69;;;4.02;100.00
59367;BME280;45163;47.690;11.770;2023-12-14T12:13:55;93132.72;;;3.84;100.00
59367;BME280;45163;47.690;11.770;2023-12-14T12:16:21;93134.31;;;3.78;100.00
59367;BME280;45163;47.690;11.770;2023-12-14T12:18:48;93129.72;;;3.71;100.00
59367;BME280;45163;47.690;11.770;2023-12-14T12:21:16;93130.44;;;3.79;100.00
59367;BME280;45163;47.690;11.770;2023-12-14T12:23:42;93138.22;;;3.66;100.00
59367;BME280;45163;47.690;11.770;2023-12-14T12:26:18;93133.53;;;3.77;100.00
59367;BME280;45163;47.690;11.770;2023-12-14T12:28:44;93136.31;;;3.63;100.00
59367;BME280;45163;47.690;11.770;2023-12-14T12:31:13;93147.16;;;3.56;100.00
59367;BME280;45163;47.690;11.770;2023-12-14T12:33:39;93144.38;;;3.70;100.00
59367;BME280;45163;47.690;11.770;2023-12-14T12:36:06;93142.47;;;3.67;100.00
59367;BME280;45163;47.690;11.770;2023-12-14T12:38:32;93146.28;;;3.77;100.00
59367;BME280;45163;47.690;11.770;2023-12-14T12:40:58;93147.53;;;3.58;100.00
59367;BME280;45163;47.690;11.770;2023-12-14T12:43:26;93152.50;;;3.66;100.00
59367;BME280;45163;47.690;11.770;2023-12-14T12:45:52;93150.41;;;3.92;100.00
59367;BME280;45163;47.690;11.770;2023-12-14T12:48:17;93150.63;;;4.15;100.00
59367;BME280;45163;47.690;11.770;2023-12-14T12:50:43;93152.50;;;4.22;100.00
59367;BME280;45163;47.690;11.770;2023-12-14T12:53:10;93157.75;;;3.88;100.00
59367;BME280;45163;47.690;11.770;2023-12-14T12:55:36;93156.22;;;3.87;100.00
59367;BME280;45163;47.690;11.770;2023-12-14T12:58:02;93158.81;;;4.01;100.00
59367;BME280;45163;47.690;11.770;2023-12-14T13:00:30;93162.69;;;4.04;100.00